Latest Weather Observations for Ballina

IDN60801

Issued at 2:05 pm EST Thursday 21 August 2014 (issued every 30 minutes, with the page automatically refreshed every 10 minutes)

About weather observations | Map of weather stations | Latest weather observations for NSW | Other Formats
Station Details ID: 058198 Name: BALLINA AIRPORT AWS Lat: -28.84 Lon: 153.56 Height: 1.3 m
Data from the previous 72 hours. | See also: Recent months at Ballina
Date/Time
EST
Temp
°C
App
Temp
°C
Dew
Point
Rel
Hum
%
Delta-T
°C
Wind Press
QNH
hPa
Press
MSL
hPa
Rain
since 9 am
mm
Dir
 
Spd
km/h
Gust
km/h
Spd
kts
Gust
kts
21/02:00pm 17.0 14.8 15.0 88 1.2 SSE 20 28 11 15 1023.3 1023.3 11.2
21/01:44pm 15.6 13.9 14.6 94 0.6 SSW 17 22 9 12 1023.4 - 11.2
21/01:30pm 15.4 14.0 14.6 95 0.5 S 15 24 8 13 1023.5 - 11.2
21/01:00pm 15.4 12.6 14.4 94 0.6 SSW 22 35 12 19 1023.5 1023.5 8.6
21/12:40pm 16.5 13.7 14.3 87 1.3 S 22 37 12 20 1023.7 - 5.6
21/12:30pm 17.3 14.5 14.4 83 1.7 SSW 22 32 12 17 1023.8 - 4.8
21/12:00pm 17.8 15.4 14.5 81 1.9 S 20 33 11 18 1024.2 1024.2 4.8
21/11:30am 17.1 14.7 15.4 90 1.0 S 22 32 12 17 1024.5 - 4.8
21/11:00am 17.2 14.8 13.9 81 1.9 S 19 24 10 13 1024.7 1024.7 4.4
21/10:30am 16.0 12.6 13.7 86 1.3 S 24 39 13 21 1025.0 - 4.4
21/10:20am 15.4 14.5 14.8 96 0.3 WSW 13 15 7 8 1025.1 - 4.4
21/10:00am 14.4 12.3 13.6 95 0.4 WSW 17 26 9 14 1025.3 1025.3 4.0
21/09:57am 14.3 12.2 13.5 95 0.4 WSW 17 20 9 11 1025.2 - 3.6
21/09:45am 14.5 12.9 13.9 96 0.3 WSW 15 20 8 11 1025.1 - 2.8
21/09:39am 14.6 13.4 14.0 96 0.3 WSW 13 24 7 13 1025.2 - 2.8
21/09:30am 14.1 12.7 13.5 96 0.3 SW 13 19 7 10 1025.3 - 2.8
21/09:26am 13.8 12.3 13.0 95 0.4 SSW 13 19 7 10 1025.4 - 2.6
21/09:17am 13.6 10.8 12.5 93 0.6 WSW 19 22 10 12 1025.3 - 1.2
21/09:00am 14.0 11.8 13.4 96 0.3 WSW 17 22 9 12 1025.1 1025.1 18.4
21/08:41am 13.3 11.7 12.7 96 0.3 WSW 13 20 7 11 1025.2 - 18.4
21/08:30am 13.4 10.7 12.8 96 0.3 WSW 19 24 10 13 1025.1 - 18.0
21/08:16am 13.4 11.0 12.8 96 0.3 SW 17 26 9 14 1025.2 - 17.8
21/08:08am 13.1 10.7 12.5 96 0.3 SW 17 24 9 13 1025.4 - 17.6
21/08:00am 12.9 10.0 12.3 96 0.3 SW 19 26 10 14 1025.4 1025.4 17.4
21/07:53am 12.8 11.3 12.0 95 0.4 S 11 19 6 10 1025.4 - 16.0
21/07:43am 13.1 11.2 11.8 92 0.7 S 13 20 7 11 1025.2 - 11.6
21/07:30am 13.0 9.6 11.4 90 0.8 WSW 20 28 11 15 1024.5 - 10.8
21/07:11am 12.6 9.4 11.3 92 0.7 WSW 19 22 10 12 1024.4 - 10.8
21/07:00am 12.7 9.3 11.4 92 0.7 WSW 20 28 11 15 1024.3 1024.3 10.8
21/06:57am 12.7 9.3 11.4 92 0.7 WSW 20 30 11 16 1024.4 - 10.8
21/06:36am 12.6 9.2 11.3 92 0.7 WSW 20 28 11 15 1024.3 - 10.6
21/06:30am 12.6 9.5 11.5 93 0.6 WSW 19 26 10 14 1024.3 - 10.6
21/06:22am 12.5 9.3 11.4 93 0.6 WSW 19 24 10 13 1024.2 - 10.6
21/06:00am 12.4 9.3 11.6 95 0.4 WSW 19 26 10 14 1023.8 1023.8 10.6
21/05:41am 12.5 9.4 11.7 95 0.4 WSW 19 26 10 14 1023.7 - 10.4
21/05:30am 12.5 9.2 11.7 95 0.4 WSW 20 24 11 13 1023.6 - 10.4
21/05:12am 12.5 8.9 11.7 95 0.4 WSW 22 30 12 16 1023.4 - 10.2
21/05:09am 12.5 8.9 11.7 95 0.4 WSW 22 30 12 16 1023.4 - 10.0
21/05:00am 12.4 9.1 11.6 95 0.4 WSW 20 26 11 14 1023.3 1023.3 10.0
21/04:36am 12.5 9.9 11.9 96 0.3 WSW 17 26 9 14 1023.3 - 9.2
21/04:30am 12.5 9.5 11.9 96 0.3 WSW 19 26 10 14 1023.2 - 9.2
21/04:00am 12.7 10.4 11.6 93 0.6 WSW 15 24 8 13 1023.0 1023.0 5.0
21/03:55am 12.7 10.4 11.6 93 0.6 WSW 15 24 8 13 1023.1 - 4.4
21/03:51am 12.7 10.4 11.6 93 0.6 WSW 15 24 8 13 1023.0 - 4.2
21/03:37am 12.7 9.4 11.6 93 0.6 WSW 20 30 11 16 1022.7 - 3.6
21/03:30am 12.8 9.6 11.9 94 0.5 WSW 20 30 11 16 1022.5 - 3.6
21/03:23am 12.9 9.9 12.0 94 0.5 WSW 19 30 10 16 1022.6 - 3.6
21/03:00am 13.3 9.4 12.2 93 0.6 SW 24 32 13 17 1022.5 1022.5 3.2
21/02:30am 13.6 10.6 12.5 93 0.6 SW 20 28 11 15 1022.7 - 3.0
21/02:00am 13.8 11.5 13.0 95 0.4 WSW 17 24 9 13 1022.8 1022.8 3.0
21/01:46am 13.8 11.5 13.0 95 0.4 WSW 17 22 9 12 1023.0 - 3.0
21/01:42am 13.8 11.5 13.0 95 0.4 WSW 17 22 9 12 1023.0 - 3.0
21/01:30am 14.0 12.2 13.2 95 0.4 SW 15 22 8 12 1023.2 - 3.0
21/01:28am 14.0 12.2 13.2 95 0.4 SW 15 22 8 12 1023.3 - 2.8
21/01:09am 14.9 12.6 12.9 88 1.1 S 17 30 9 16 1023.4 - 0.6
21/01:00am 15.1 12.2 12.4 84 1.5 WSW 19 26 10 14 1023.1 1023.1 0.0
21/12:30am 15.6 11.8 12.4 81 1.8 S 24 35 13 19 1023.2 - 0.0
21/12:00am 16.3 11.3 12.3 77 2.2 S 30 46 16 25 1023.1 1023.1 0.0
 
Date/Time
EST
Temp
°C
App
Temp
°C
Dew
Point
Rel
Hum
%
Delta-T
°C
Wind Press
QNH
hPa
Press
MSL
hPa
Rain
since 9 am
mm
Dir
 
Spd
km/h
Gust
km/h
Spd
kts
Gust
kts
20/11:30pm 16.5 11.6 11.2 71 2.9 S 28 43 15 23 1022.9 - 0.0
20/11:00pm 16.6 13.0 11.9 74 2.6 S 22 30 12 16 1023.1 1023.1 0.0
20/10:30pm 16.1 11.2 12.7 80 1.9 S 30 41 16 22 1023.1 - 0.0
20/10:00pm 17.1 12.9 12.4 74 2.6 S 26 41 14 22 1023.0 1023.0 0.0
20/09:30pm 16.9 13.0 12.0 73 2.7 S 24 37 13 20 1023.2 - 0.0
20/09:00pm 17.5 13.0 12.6 73 2.7 S 28 43 15 23 1023.0 1023.0 0.0
20/08:30pm 17.2 13.8 12.5 74 2.6 S 22 32 12 17 1023.0 - 0.0
20/08:00pm 17.1 12.1 12.2 73 2.7 S 30 44 16 24 1022.5 1022.5 0.0
20/07:30pm 17.4 12.0 12.1 71 2.9 S 32 52 17 28 1022.2 - 0.0
20/07:18pm 17.4 12.4 12.3 72 2.8 S 30 48 16 26 1022.0 - 0.0
20/07:00pm 17.1 13.4 12.8 76 2.4 S 24 43 13 23 1021.9 1021.9 0.0
20/06:55pm 16.9 12.0 12.6 76 2.4 S 30 48 16 26 1021.9 - 0.0
20/06:30pm 17.0 11.8 11.7 71 2.9 S 30 43 16 23 1021.6 - 0.0
20/06:00pm 17.5 12.2 11.1 66 3.4 S 30 44 16 24 1021.3 1021.3 0.0
20/05:30pm 17.6 13.1 11.4 67 3.4 S 26 39 14 21 1020.9 - 0.0
20/05:00pm 17.8 12.4 10.9 64 3.7 S 30 44 16 24 1020.7 1020.7 0.0
20/04:30pm 18.3 14.2 11.6 65 3.7 S 24 37 13 20 1020.5 - 0.0
20/04:12pm 18.5 13.7 11.6 64 3.8 S 28 46 15 25 1020.2 - 0.0
20/04:00pm 18.5 13.7 11.8 65 3.7 S 28 41 15 22 1020.1 1020.1 0.0
20/03:30pm 19.0 13.7 11.3 61 4.2 S 30 44 16 24 1019.9 - 0.0
20/03:00pm 19.1 13.9 11.7 62 4.1 S 30 39 16 21 1019.6 1019.6 0.0
20/02:30pm 18.8 13.9 11.4 62 4.0 S 28 43 15 23 1019.5 - 0.0
20/02:24pm 19.0 13.8 11.6 62 4.1 S 30 48 16 26 1019.6 - 0.0
20/02:00pm 19.1 13.4 11.2 60 4.3 S 32 46 17 25 1019.7 1019.7 0.0
20/01:51pm 19.1 13.5 11.4 61 4.2 S 32 50 17 27 1019.6 - 0.0
20/01:30pm 19.6 14.1 11.9 61 4.3 S 32 44 17 24 1019.6 - 0.0
20/01:00pm 19.0 12.9 11.8 63 4.0 S 35 48 19 26 1019.6 1019.6 0.0
20/12:47pm 18.9 13.7 11.7 63 4.0 S 30 48 16 26 1019.6 - 0.0
20/12:30pm 18.9 13.2 11.7 63 4.0 S 33 50 18 27 1019.9 - 0.0
20/12:00pm 18.5 14.1 11.6 64 3.8 SSW 26 39 14 21 1020.3 1020.3 0.0
20/11:30am 17.7 12.0 11.0 65 3.6 SSW 32 48 17 26 1020.6 - 0.0
20/11:18am 17.7 12.7 10.8 64 3.7 SSW 28 48 15 26 1020.7 - 0.0
20/11:00am 17.9 14.2 11.5 66 3.5 SSW 22 35 12 19 1020.9 1020.9 0.0
20/10:30am 17.8 13.1 10.7 63 3.8 SSW 26 39 14 21 1021.0 - 0.0
20/10:00am 17.5 13.7 9.9 61 4.0 SW 20 28 11 15 1020.9 1020.9 0.0
20/09:30am 17.3 12.6 9.2 59 4.2 SW 24 41 13 22 1020.7 - 0.0
20/09:00am 16.5 11.5 8.2 58 4.2 SW 24 39 13 21 1020.5 1020.5 0.0
20/08:30am 16.6 12.0 8.3 58 4.2 SW 22 35 12 19 1020.3 - 0.0
20/08:00am 16.1 12.6 8.8 62 3.7 SW 17 24 9 13 1020.1 1020.1 0.0
20/07:30am 15.0 11.4 8.5 65 3.3 WSW 17 20 9 11 1019.9 - 0.0
20/07:00am 14.2 11.0 8.6 69 2.8 WSW 15 19 8 10 1019.6 1019.6 0.0
20/06:30am 13.6 10.4 8.4 71 2.6 WSW 15 20 8 11 1019.3 - 0.0
20/06:00am 13.5 10.0 8.8 73 2.4 W 17 20 9 11 1018.9 1018.9 0.0
20/05:30am 14.0 10.4 8.2 68 2.9 WSW 17 24 9 13 1018.4 - 0.0
20/05:00am 14.5 10.9 8.2 66 3.1 WSW 17 22 9 12 1018.1 1018.1 0.0
20/04:30am 13.9 10.3 8.5 70 2.7 WSW 17 22 9 12 1017.6 - 0.0
20/04:00am 14.5 11.0 8.9 69 2.8 WSW 17 24 9 13 1017.4 1017.4 0.0
20/03:30am 14.5 11.0 8.9 69 2.8 WSW 17 24 9 13 1017.3 - 0.0
20/03:00am 13.6 10.7 9.5 76 2.1 WSW 15 20 8 11 1017.1 1017.1 0.0
20/02:30am 12.4 10.0 10.1 86 1.2 W 13 15 7 8 1017.1 - 0.0
20/02:00am 11.2 8.7 9.6 90 0.8 W 13 17 7 9 1017.0 1017.0 0.0
20/01:30am 12.0 9.5 9.7 86 1.2 WSW 13 13 7 7 1017.0 - 0.0
20/01:00am 12.0 9.6 9.9 87 1.1 W 13 17 7 9 1017.0 1017.0 0.0
20/12:30am 11.7 9.6 9.9 89 0.9 W 11 13 6 7 1016.8 - 0.0
20/12:00am 11.6 9.6 10.0 90 0.8 W 11 13 6 7 1016.7 1016.7 0.0
 
Date/Time
EST
Temp
°C
App
Temp
°C
Dew
Point
Rel
Hum
%
Delta-T
°C
Wind Press
QNH
hPa
Press
MSL
hPa
Rain
since 9 am
mm
Dir
 
Spd
km/h
Gust
km/h
Spd
kts
Gust
kts
19/11:30pm 11.6 9.9 9.7 88 1.0 W 9 13 5 7 1016.6 - 0.0
19/11:00pm 11.6 9.4 9.5 87 1.1 W 11 13 6 7 1016.6 1016.6 0.0
19/10:30pm 12.8 11.0 10.7 87 1.1 WSW 11 13 6 7 1016.3 - 0.0
19/10:00pm 12.6 11.1 10.7 88 1.0 W 9 11 5 6 1016.2 1016.2 0.0
19/09:30pm 12.5 10.6 10.6 88 1.0 W 11 13 6 7 1016.2 - 0.0
19/09:00pm 12.8 11.0 10.7 87 1.1 W 11 15 6 8 1016.0 1016.0 0.0
19/08:30pm 13.5 12.2 11.2 86 1.2 WSW 9 11 5 6 1015.8 - 0.0
19/08:00pm 14.1 12.1 11.4 84 1.4 W 13 15 7 8 1015.7 1015.7 0.0
19/07:30pm 14.9 12.5 11.5 80 1.8 W 15 19 8 10 1015.4 - 0.0
19/07:00pm 15.8 14.1 12.5 81 1.8 W 13 15 7 8 1015.2 1015.2 0.0
19/06:30pm 16.2 14.8 12.2 77 2.2 W 11 13 6 7 1014.6 - 0.0
19/06:00pm 17.5 16.1 12.2 71 2.9 SW 11 15 6 8 1014.1 1014.1 0.0
19/05:30pm 17.8 15.9 11.8 68 3.3 SW 13 19 7 10 1013.8 - 0.0
19/05:00pm 18.3 15.7 12.1 67 3.4 SSW 17 26 9 14 1013.0 1013.0 0.0
19/04:30pm 18.7 15.6 12.2 66 3.6 S 20 28 11 15 1012.4 - 0.0
19/04:00pm 19.1 15.5 10.4 57 4.7 S 20 30 11 16 1011.9 1011.9 0.0
19/03:30pm 19.8 14.1 8.2 47 6.0 S 28 35 15 19 1011.4 - 0.0
19/03:00pm 20.5 18.4 9.7 50 5.8 SE 11 13 6 7 1010.7 1010.7 0.0
19/02:30pm 20.3 17.3 7.7 44 6.5 SE 13 17 7 9 1010.5 - 0.0
19/02:00pm 20.9 18.7 9.5 48 6.1 SE 11 17 6 9 1010.5 1010.5 0.0
19/01:30pm 21.2 18.0 8.5 44 6.7 SE 15 19 8 10 1010.5 - 0.0
19/01:00pm 22.3 19.2 8.8 42 7.2 W 15 22 8 12 1010.5 1010.5 0.0
19/12:30pm 21.8 17.5 8.0 41 7.2 WSW 20 22 11 12 1010.8 - 0.0
19/12:00pm 21.3 17.3 8.2 43 6.9 WSW 19 33 10 18 1011.3 1011.3 0.0
19/11:30am 21.3 16.8 8.6 44 6.7 WSW 22 35 12 19 1011.6 - 0.0
19/11:00am 21.0 16.1 8.6 45 6.5 WSW 24 33 13 18 1011.8 1011.8 0.0
19/10:30am 20.2 14.6 8.8 48 6.0 W 28 43 15 23 1012.0 - 0.0
19/10:00am 19.9 14.3 8.6 48 5.9 W 28 37 15 20 1012.1 1012.1 0.0
19/09:30am 19.1 13.8 8.4 50 5.5 W 26 43 14 23 1012.2 - 0.0
19/09:00am 18.2 12.3 7.6 50 5.4 W 28 37 15 20 1012.1 1012.1 0.0
19/08:30am 17.7 12.8 8.3 54 4.8 W 24 33 13 18 1012.0 - 0.0
19/08:00am 16.9 11.8 7.5 54 4.7 W 24 33 13 18 1011.7 1011.7 0.0
19/07:30am 16.2 11.1 7.7 57 4.3 WNW 24 32 13 17 1011.5 - 0.0
19/07:00am 15.5 10.7 7.5 59 4.0 W 22 32 12 17 1011.3 1011.3 0.0
19/06:30am 15.0 10.6 7.3 60 3.8 W 20 30 11 16 1010.9 - 0.0
19/06:00am 14.9 9.8 7.7 62 3.6 W 24 41 13 22 1010.4 1010.4 0.0
19/05:30am 14.7 9.6 7.7 63 3.5 W 24 35 13 19 1009.9 - 0.0
19/05:00am 14.7 9.6 7.7 63 3.5 W 24 35 13 19 1009.6 1009.6 0.0
19/04:30am 14.9 9.0 7.7 62 3.6 W 28 37 15 20 1009.3 - 0.0
19/04:00am 14.8 9.7 7.8 63 3.5 W 24 33 13 18 1009.1 1009.1 0.0
19/03:30am 14.5 9.8 7.8 64 3.3 W 22 30 12 16 1009.0 - 0.0
19/03:00am 14.7 10.0 7.7 63 3.5 WNW 22 30 12 16 1009.2 1009.2 0.0
19/02:30am 14.4 10.1 7.7 64 3.3 WNW 20 26 11 14 1009.4 - 0.0
19/02:00am 14.7 10.6 7.7 63 3.5 WNW 19 32 10 17 1009.8 1009.8 0.0
19/01:30am 14.4 10.1 7.9 65 3.2 W 20 32 11 17 1010.0 - 0.0
19/01:00am 14.5 9.8 7.8 64 3.3 WNW 22 30 12 16 1010.0 1010.0 0.0
19/12:30am 14.8 10.1 7.8 63 3.5 WNW 22 33 12 18 1010.4 - 0.0
19/12:00am 14.8 9.4 7.8 63 3.5 WNW 26 43 14 23 1010.3 1010.3 0.0
 
Date/Time
EST
Temp
°C
App
Temp
°C
Dew
Point
Rel
Hum
%
Delta-T
°C
Wind Press
QNH
hPa
Press
MSL
hPa
Rain
since 9 am
mm
Dir
 
Spd
km/h
Gust
km/h
Spd
kts
Gust
kts
18/11:30pm 14.6 9.6 7.9 64 3.3 WNW 24 32 13 17 1010.4 - 0.0
18/11:00pm 14.6 10.3 7.9 64 3.3 WNW 20 28 11 15 1010.6 1010.6 0.0
18/10:30pm 15.0 9.9 7.8 62 3.6 W 24 33 13 18 1010.6 - 0.0
18/10:00pm 14.9 9.5 7.9 63 3.5 W 26 35 14 19 1010.5 1010.5 0.0
18/09:30pm 15.4 9.2 7.9 61 3.8 W 30 44 16 24 1010.3 - 0.0
18/09:00pm 15.5 9.3 7.8 60 3.9 W 30 50 16 27 1010.0 1010.0 0.0
18/08:58pm 15.5 9.7 8.0 61 3.8 W 28 50 15 27 1009.9 - 0.0
18/08:30pm 15.4 10.3 7.7 60 3.8 WNW 24 35 13 19 1009.6 - 0.0
18/08:00pm 15.4 9.9 7.4 59 4.0 WNW 26 33 14 18 1009.4 1009.4 0.0
18/07:30pm 15.5 10.4 7.5 59 4.0 W 24 37 13 20 1009.1 - 0.0
18/07:00pm 15.5 11.3 7.3 58 4.1 WNW 19 26 10 14 1008.7 1008.7 0.0
18/06:30pm 15.7 11.4 7.2 57 4.2 WNW 19 28 10 15 1008.2 - 0.0
18/06:00pm 16.4 12.5 7.1 54 4.6 WNW 17 32 9 17 1007.7 1007.7 0.0
18/05:30pm 16.5 12.0 6.9 53 4.7 WNW 20 30 11 16 1007.4 - 0.0
18/05:00pm 17.3 13.0 7.1 51 5.1 WNW 19 37 10 20 1007.3 1007.3 0.0
18/04:30pm 17.9 12.4 7.6 51 5.2 WNW 26 41 14 22 1006.7 - 0.0
18/04:00pm 18.5 12.3 7.9 50 5.4 WNW 30 41 16 22 1006.3 1006.3 0.0
18/03:46pm 17.9 12.0 7.3 50 5.3 WNW 28 46 15 25 1006.0 - 0.0
18/03:30pm 18.1 11.4 7.5 50 5.4 WNW 32 44 17 24 1006.0 - 0.0
18/03:00pm 19.1 13.1 7.2 46 6.0 WNW 28 39 15 21 1005.8 1005.8 0.0
18/02:30pm 19.7 13.4 7.4 45 6.3 WNW 30 44 16 24 1005.9 - 0.0

Other Formats:

Comma delimited format used in spreadsheet applications
http://www.bom.gov.au/fwo/IDN60801/IDN60801.94596.axf

JavaScript Object Notation format (JSON) in row-major order
http://www.bom.gov.au/fwo/IDN60801/IDN60801.94596.json